Erie, Pennsylvania
Current Conditions -  °F | °C
As of 11:02 PM on Wednesday 26 Nov 2014 (Local Time) from KERI Reporting Station
Overcast Overcast  
Wind Chill: 30°   Ceiling: 3100
Heat Index: 35°   Visibility: 10mi
Dew Point: 27°   Wind: 6mph
Humidity: 72%   Direction: 50°NE
Pressure: 30.02"   Gusts: NA
Location:  42.13°N, 80.08°W
Report Text: KERI 270402Z 05005KT 10SM BKN031 OVC044 02/M03 A3002 RMK AO2 T00171028
Loading
Personal Weather Stations






























Interactive Weather Map New forecast layout! Learn more

10-Day Weather Forecast

Advertisements
Track Severe Weather on mobile